Time;durP1;ratioP1;P1;durP2;ratioP2;P2;SDS_P1;SDS_P2;PMS_P1;PMS_P2;Temp;Humidity;BMP_temperature;BMP_pressure;BME280_temperature;BME280_humidity;BME280_pressure;Samples;Min_cycle;Max_cycle;Signal;HPM_P1;HPM_P2
2021/12/01 00:00:54;;;;;;;4.20;2.22;;;;;;;-4.27;92.91;96095.31;4815978;29;20577;-91
2021/12/01 00:03:21;;;;;;;2.20;1.50;;;;;;;-4.29;93.09;96094.72;4833273;29;20148;-91
2021/12/01 00:05:50;;;;;;;3.50;1.83;;;;;;;-4.32;93.25;96097.81;4847138;29;20162;-91
2021/12/01 00:08:41;;;;;;;5.13;2.30;;;;;;;-4.38;94.06;96128.41;4848173;29;20058;-90
2021/12/01 00:11:09;;;;;;;5.85;2.25;;;;;;;-4.42;94.52;96114.91;4842004;29;20068;-91
2021/12/01 00:13:37;;;;;;;3.20;2.45;;;;;;;-4.46;95.16;96121.63;4852537;29;20127;-93
2021/12/01 00:16:08;;;;;;;5.05;2.17;;;;;;;-4.49;95.67;96118.63;4836923;29;20585;-92
2021/12/01 00:18:36;;;;;;;6.70;2.17;;;;;;;-4.47;95.99;96122.66;4840280;29;20049;-91
2021/12/01 00:21:04;;;;;;;3.90;1.92;;;;;;;-4.50;96.30;96156.53;4855311;29;20087;-91
2021/12/01 00:23:32;;;;;;;3.05;2.05;;;;;;;-4.47;96.42;96116.59;4854618;29;20075;-93
2021/12/01 00:26:02;;;;;;;3.58;2.15;;;;;;;-4.49;96.28;96127.34;4836490;29;20056;-92
2021/12/01 00:28:33;;;;;;;3.30;1.90;;;;;;;-4.54;96.85;96116.66;4837216;29;20057;-91
2021/12/01 00:31:03;;;;;;;2.78;1.92;;;;;;;-4.48;96.80;96125.50;4853395;29;20064;-92
2021/12/01 00:33:35;;;;;;;2.65;1.67;;;;;;;-4.49;96.55;96116.81;4838830;29;20077;-91
2021/12/01 00:36:04;;;;;;;3.75;2.72;;;;;;;-4.52;96.60;96125.16;4857100;29;20049;-93
2021/12/01 00:38:48;;;;;;;2.65;1.70;;;;;;;-4.52;96.93;96135.69;4856474;29;20118;-91
2021/12/01 00:41:23;;;;;;;3.38;2.00;;;;;;;-4.52;97.05;96114.63;4840431;29;20049;-93
2021/12/01 00:44:00;;;;;;;2.88;1.88;;;;;;;-4.51;97.12;96118.84;4839583;29;20054;-90
2021/12/01 00:47:12;;;;;;;;;;;;;;;-4.50;96.90;96120.47;4839415;29;20081;-90
2021/12/01 00:49:27;;;;;;;4.00;2.15;;;;;;;-4.47;96.81;96106.88;4848135;29;19928;-91
2021/12/01 00:52:08;;;;;;;4.25;1.67;;;;;;;-4.47;96.53;96127.94;4841071;29;20614;-92
2021/12/01 00:54:36;;;;;;;4.65;3.03;;;;;;;-4.44;96.30;96164.34;4856981;29;20065;-90
2021/12/01 00:57:06;;;;;;;4.93;2.50;;;;;;;-4.44;97.01;96145.09;4838967;29;20122;-93
2021/12/01 00:59:34;;;;;;;3.60;2.10;;;;;;;-4.48;97.79;96131.59;4837233;29;20070;-93
2021/12/01 01:02:03;;;;;;;3.15;1.88;;;;;;;-4.46;97.84;96140.06;4854356;29;20057;-93
2021/12/01 01:04:32;;;;;;;3.47;2.20;;;;;;;-4.47;98.12;96124.50;4853510;29;20477;-91
2021/12/01 01:07:04;;;;;;;3.70;2.60;;;;;;;-4.46;97.94;96147.16;4834514;29;20421;-90
2021/12/01 01:09:33;;;;;;;2.28;1.65;;;;;;;-4.47;97.95;96124.50;4849790;29;20050;-92
2021/12/01 01:17:38;;;;;;;3.08;2.15;;;;;;;-4.45;97.75;96122.44;4839463;29;20126;-93
2021/12/01 01:20:11;;;;;;;3.78;2.10;;;;;;;-4.47;97.87;96127.13;4851597;29;20126;-92
2021/12/01 01:22:52;;;;;;;6.00;2.15;;;;;;;-4.46;98.05;96161.13;4821534;29;20058;-92
2021/12/01 01:25:19;;;;;;;5.82;3.55;;;;;;;-4.48;97.87;96149.19;4849681;29;20085;-94
2021/12/01 01:28:05;;;;;;;4.75;1.90;;;;;;;-4.51;97.95;96132.00;4817438;29;20071;-93
2021/12/01 01:30:32;;;;;;;2.97;2.05;;;;;;;-4.49;97.76;96124.69;4852822;29;20053;-91
2021/12/01 01:33:00;;;;;;;3.40;2.05;;;;;;;-4.51;97.44;96131.22;4862864;29;20057;-91
2021/12/01 01:35:27;;;;;;;2.80;1.92;;;;;;;-4.48;97.49;96143.94;4857117;29;20072;-92
2021/12/01 01:37:54;;;;;;;4.20;2.70;;;;;;;-4.53;97.62;96126.19;4848051;29;20517;-91
2021/12/01 01:40:22;;;;;;;2.70;1.63;;;;;;;-4.48;97.68;96146.56;4848930;29;20050;-92
2021/12/01 01:42:49;;;;;;;3.80;2.20;;;;;;;-4.50;97.60;96149.44;4832927;29;20634;-92
2021/12/01 01:45:17;;;;;;;3.05;1.83;;;;;;;-4.54;97.92;96137.72;4834391;29;20049;-93
2021/12/01 01:47:51;;;;;;;3.83;2.30;;;;;;;-4.53;97.84;96131.44;4849930;29;20081;-91
2021/12/01 01:50:51;;;;;;;3.10;1.83;;;;;;;-4.56;97.91;96134.50;4832372;29;20054;-91
2021/12/01 01:53:14;;;;;;;2.17;1.70;;;;;;;-4.52;97.81;96140.94;4829959;29;20054;-91
2021/12/01 01:55:44;;;;;;;5.18;2.58;;;;;;;-4.53;97.93;96135.88;4848563;29;20065;-93
2021/12/01 01:58:14;;;;;;;2.95;1.90;;;;;;;-4.55;98.01;96159.81;4848799;29;20541;-92
2021/12/01 02:00:51;;;;;;;3.97;2.53;;;;;;;-4.55;98.12;96137.94;4833767;29;20075;-92
2021/12/01 02:03:23;;;;;;;3.58;2.50;;;;;;;-4.56;98.15;96152.91;4835869;29;20213;-93
2021/12/01 02:05:51;;;;;;;3.50;2.25;;;;;;;-4.51;98.01;96142.53;4856114;29;20077;-94
2021/12/01 02:08:28;;;;;;;3.72;2.20;;;;;;;-4.52;97.80;96163.84;4857674;29;20042;-92
2021/12/01 02:10:59;;;;;;;3.05;1.63;;;;;;;-4.57;97.88;96146.84;4832849;29;20080;-91
2021/12/01 02:13:27;;;;;;;3.63;1.90;;;;;;;-4.58;97.81;96171.59;4804143;29;20054;-93
2021/12/01 02:15:57;;;;;;;4.57;2.67;;;;;;;-4.58;98.01;96163.69;4818239;29;20050;-93
2021/12/01 02:18:52;;;;;;;2.83;1.70;;;;;;;-4.57;97.94;96185.53;4835863;29;20062;-94
2021/12/01 02:21:34;;;;;;;4.70;2.92;;;;;;;-4.58;97.97;96155.00;4825008;29;20178;-92
2021/12/01 02:24:04;;;;;;;2.97;1.95;;;;;;;-4.59;97.89;96166.53;4853769;29;20060;-93
2021/12/01 02:26:35;;;;;;;4.60;2.42;;;;;;;-4.59;98.05;96161.25;4823641;29;20054;-93
2021/12/01 02:29:05;;;;;;;3.47;2.28;;;;;;;-4.60;97.92;96170.19;4838297;29;20050;-92
2021/12/01 02:31:35;;;;;;;4.00;1.92;;;;;;;-4.64;97.93;96158.47;4837259;29;20110;-92
2021/12/01 02:34:05;;;;;;;3.55;2.00;;;;;;;-4.64;97.54;96169.00;4823741;29;20056;-91
2021/12/01 02:36:38;;;;;;;5.47;2.38;;;;;;;-4.64;97.64;96174.28;4856929;29;20062;-92
2021/12/01 02:39:09;;;;;;;4.55;3.00;;;;;;;-4.64;97.18;96176.91;4854784;29;20054;-92
2021/12/01 02:41:36;;;;;;;4.25;1.73;;;;;;;-4.65;97.14;96175.31;4855139;29;20050;-92
2021/12/01 02:44:07;;;;;;;3.17;1.88;;;;;;;-4.66;97.30;96179.75;4854909;29;20050;-93
2021/12/01 02:46:37;;;;;;;3.33;2.30;;;;;;;-4.68;97.23;96173.91;4837712;29;20430;-92
2021/12/01 02:49:06;;;;;;;3.88;1.92;;;;;;;-4.66;96.82;96186.84;4854653;29;20058;-95
2021/12/01 02:51:36;;;;;;;4.65;2.25;;;;;;;-4.67;96.49;96180.78;4854042;29;20504;-93
2021/12/01 02:54:04;;;;;;;3.05;1.70;;;;;;;-4.69;96.62;96174.13;4853531;29;20061;-94
2021/12/01 02:56:51;;;;;;;2.92;1.90;;;;;;;-4.69;96.20;96187.28;4838825;29;20600;-93
2021/12/01 02:59:19;;;;;;;2.95;1.98;;;;;;;-4.70;96.43;96175.16;4853830;29;20057;-93
2021/12/01 03:01:56;;;;;;;3.83;1.77;;;;;;;-4.76;96.21;96171.56;4836357;29;20060;-90
2021/12/01 03:04:24;;;;;;;3.55;2.33;;;;;;;-4.72;95.97;96175.34;4830222;29;20073;-89
2021/12/01 03:06:53;;;;;;;2.65;1.88;;;;;;;-4.76;95.71;96182.09;4847466;29;20054;-91
2021/12/01 03:09:20;;;;;;;4.30;1.92;;;;;;;-4.77;96.06;96174.41;4816614;29;20474;-89
2021/12/01 03:11:49;;;;;;;4.82;1.70;;;;;;;-4.80;95.85;96181.69;4853406;29;20065;-94
2021/12/01 03:14:18;;;;;;;7.35;2.20;;;;;;;-4.77;95.74;96182.28;4851998;29;20085;-91
2021/12/01 03:16:50;;;;;;;2.47;1.63;;;;;;;-4.83;96.01;96176.06;4821750;29;20064;-88
2021/12/01 03:19:18;;;;;;;2.65;1.55;;;;;;;-4.77;95.72;96187.56;4855657;29;20057;-90
2021/12/01 03:21:45;;;;;;;3.53;2.20;;;;;;;-4.80;95.41;96178.28;4812871;29;20046;-88
2021/12/01 03:24:13;;;;;;;3.90;2.83;;;;;;;-4.82;95.83;96190.81;4827635;29;20085;-87
2021/12/01 03:26:40;;;;;;;3.22;1.90;;;;;;;-4.83;95.48;96190.03;4827556;29;20053;-85
2021/12/01 03:29:08;;;;;;;2.42;1.52;;;;;;;-4.80;95.17;96208.00;4828945;29;20462;-90
2021/12/01 03:31:36;;;;;;;4.82;2.15;;;;;;;-4.81;94.84;96188.00;4847332;29;20087;-89
2021/12/01 03:34:05;;;;;;;3.97;2.17;;;;;;;-4.87;95.06;96186.22;4847789;29;20054;-88
2021/12/01 03:36:33;;;;;;;2.42;1.85;;;;;;;-4.86;95.49;96189.63;4848108;29;20046;-89
2021/12/01 03:39:00;;;;;;;3.80;1.52;;;;;;;-4.91;95.57;96176.31;4847739;29;20050;-90
2021/12/01 03:41:27;;;;;;;5.55;2.33;;;;;;;-4.87;95.23;96193.31;4847099;29;20050;-91
2021/12/01 03:43:54;;;;;;;3.20;1.77;;;;;;;-4.86;95.11;96179.94;4847184;29;20058;-89
2021/12/01 03:46:23;;;;;;;3.35;2.13;;;;;;;-4.88;94.82;96181.19;4843847;29;20144;-86
2021/12/01 03:48:50;;;;;;;4.28;2.05;;;;;;;-4.91;94.81;96171.91;4843682;29;20053;-88
2021/12/01 03:51:21;;;;;;;4.72;2.40;;;;;;;-4.94;95.05;96185.47;4843245;29;20396;-84
2021/12/01 03:53:49;;;;;;;4.00;2.25;;;;;;;-4.93;94.84;96176.56;4843270;29;20058;-87
2021/12/01 03:56:19;;;;;;;3.88;2.58;;;;;;;-4.95;94.83;96180.44;4828780;29;20190;-90
2021/12/01 03:58:47;;;;;;;5.88;2.97;;;;;;;-4.96;94.96;96181.44;4845858;29;20064;-88
2021/12/01 04:01:15;;;;;;;3.22;1.85;;;;;;;-5.01;94.98;96185.53;4837630;29;20050;-88
2021/12/01 04:03:43;;;;;;;2.47;1.58;;;;;;;-4.92;94.46;96185.25;4850208;29;20058;-90
2021/12/01 04:06:10;;;;;;;5.72;4.20;;;;;;;-4.97;94.63;96179.84;4854979;29;20087;-92
2021/12/01 04:08:38;;;;;;;2.90;2.03;;;;;;;-4.97;94.91;96201.69;4841646;29;20053;-92
2021/12/01 04:11:06;;;;;;;5.18;3.05;;;;;;;-4.95;94.71;96198.84;4819675;29;20057;-91
2021/12/01 04:13:33;;;;;;;3.05;1.80;;;;;;;-4.98;94.54;96194.00;4819064;29;20061;-90
2021/12/01 04:16:00;;;;;;;3.33;2.20;;;;;;;-4.98;94.46;96207.97;4849171;29;20042;-90
2021/12/01 04:18:52;;;;;;;3.78;2.35;;;;;;;-4.96;94.50;96205.09;4834859;29;20065;-91
2021/12/01 04:21:20;;;;;;;3.60;2.10;;;;;;;-4.98;94.62;96197.44;4850042;29;20069;-91
2021/12/01 04:23:47;;;;;;;3.95;2.30;;;;;;;-4.97;94.55;96209.56;4834670;29;20054;-92
2021/12/01 04:26:19;;;;;;;3.63;1.88;;;;;;;-4.99;94.15;96224.75;4851910;29;20206;-91
2021/12/01 04:28:46;;;;;;;3.25;2.22;;;;;;;-4.99;94.16;96193.19;4837945;29;20073;-92
2021/12/01 04:31:15;;;;;;;3.50;1.92;;;;;;;-5.01;94.13;96209.19;4843499;29;20030;-91
2021/12/01 04:33:51;;;;;;;5.07;2.10;;;;;;;-5.00;94.15;96220.53;4809021;29;20061;-91
2021/12/01 04:36:20;;;;;;;5.75;2.78;;;;;;;-5.01;94.30;96195.25;4828474;29;20060;-91
2021/12/01 04:38:49;;;;;;;5.70;2.38;;;;;;;-4.98;94.21;96229.00;4842357;29;20054;-92
2021/12/01 04:41:16;;;;;;;3.97;2.78;;;;;;;-5.04;94.14;96214.91;4856287;29;20429;-91
2021/12/01 04:43:43;;;;;;;5.00;2.25;;;;;;;-5.03;94.22;96208.59;4852691;29;20053;-91
2021/12/01 04:46:15;;;;;;;4.20;1.95;;;;;;;-5.02;94.25;96225.19;4852766;29;20050;-93
2021/12/01 04:48:43;;;;;;;5.65;2.78;;;;;;;-5.03;94.21;96228.84;4858872;29;20513;-91
2021/12/01 04:51:11;;;;;;;3.55;2.05;;;;;;;-5.08;94.05;96224.22;4834413;29;20058;-92
2021/12/01 04:53:44;;;;;;;4.05;2.42;;;;;;;-5.07;94.34;96222.38;4823563;29;20153;-89
2021/12/01 04:56:11;;;;;;;3.30;2.13;;;;;;;-5.10;94.25;96218.38;4837664;29;20058;-92
2021/12/01 04:58:44;;;;;;;3.90;1.92;;;;;;;-5.06;94.02;96237.16;4842177;29;20441;-92
2021/12/01 05:01:25;;;;;;;4.47;2.28;;;;;;;-5.10;94.06;96228.88;4734596;30;20064;-91
2021/12/01 05:03:53;;;;;;;4.05;2.63;;;;;;;-5.04;93.27;96235.94;4748992;30;20101;-93
2021/12/01 05:06:22;;;;;;;6.88;2.53;;;;;;;-5.09;93.26;96229.69;4742423;30;20597;-90
2021/12/01 05:08:50;;;;;;;8.02;3.00;;;;;;;-5.10;93.30;96246.50;4729734;30;20145;-91
2021/12/01 05:11:21;;;;;;;4.38;2.40;;;;;;;-5.12;93.21;96251.94;4743854;30;20404;-92
2021/12/01 05:14:08;;;;;;;5.55;2.78;;;;;;;-5.15;93.38;96256.84;4761423;30;20056;-91
2021/12/01 05:16:37;;;;;;;6.75;2.50;;;;;;;-5.16;93.44;96250.00;4758498;30;20110;-92
2021/12/01 05:19:07;;;;;;;5.20;2.70;;;;;;;-5.14;93.79;96248.75;4758648;30;20090;-91
2021/12/01 05:21:34;;;;;;;3.75;2.10;;;;;;;-5.09;93.69;96248.09;4758132;30;20131;-92
2021/12/01 05:24:03;;;;;;;5.07;2.83;;;;;;;-5.10;93.53;96257.00;4745168;30;20056;-90
2021/12/01 05:26:31;;;;;;;4.82;2.70;;;;;;;-5.09;93.29;96275.22;4740661;30;20106;-87
2021/12/01 05:29:08;;;;;;;5.15;2.97;;;;;;;-5.14;93.46;96269.78;4397083;30;10000309;-92
2021/12/01 05:31:35;;;;;;;3.85;2.33;;;;;;;-5.12;93.49;96266.94;4731508;30;20056;-90
2021/12/01 05:34:03;;;;;;;3.38;1.92;;;;;;;-5.12;93.29;96267.72;4764551;30;20032;-91
2021/12/01 05:36:30;;;;;;;3.42;2.35;;;;;;;-5.13;93.47;96281.09;4760350;30;20143;-89
2021/12/01 05:39:01;;;;;;;5.43;2.83;;;;;;;-5.12;93.03;96273.00;4784078;29;20054;-91
2021/12/01 05:41:57;;;;;;;4.07;2.83;;;;;;;-5.14;93.28;96276.84;4822840;29;20093;-93
2021/12/01 05:44:29;;;;;;;4.22;2.67;;;;;;;-5.10;93.08;96281.47;4837364;29;20062;-92
2021/12/01 05:46:57;;;;;;;5.07;2.92;;;;;;;-5.10;92.56;96273.59;4783603;29;20035;-86
2021/12/01 05:49:26;;;;;;;5.78;3.63;;;;;;;-5.12;92.71;96272.19;4815112;29;20386;-93
2021/12/01 05:52:28;;;;;;;5.43;2.58;;;;;;;-5.11;92.77;96282.50;4822316;29;20064;-93
2021/12/01 05:54:56;;;;;;;3.78;2.40;;;;;;;-5.10;92.59;96285.94;4844030;29;20062;-93
2021/12/01 05:57:24;;;;;;;5.72;2.75;;;;;;;-5.08;92.25;96292.59;4819258;29;20050;-87
2021/12/01 05:59:51;;;;;;;4.80;2.33;;;;;;;-5.08;91.55;96294.44;4807170;29;20058;-87
2021/12/01 06:02:18;;;;;;;8.80;2.70;;;;;;;-5.06;91.61;96292.41;4798584;29;20072;-92
2021/12/01 06:04:47;;;;;;;4.47;2.35;;;;;;;-5.06;91.54;96298.47;4808010;29;20108;-87
2021/12/01 06:07:16;;;;;;;5.90;3.25;;;;;;;-5.07;91.60;96298.66;4793878;29;20118;-89
2021/12/01 06:09:43;;;;;;;4.65;2.45;;;;;;;-5.08;91.71;96300.50;4814358;29;20070;-88
2021/12/01 06:12:14;;;;;;;4.72;2.85;;;;;;;-5.06;91.77;96305.56;4823953;29;20200;-90
2021/12/01 06:14:44;;;;;;;5.47;3.00;;;;;;;-5.05;91.87;96294.81;4818472;29;20061;-91
2021/12/01 06:17:14;;;;;;;6.07;3.20;;;;;;;-5.05;91.39;96304.53;4813865;29;20057;-93
2021/12/01 06:19:41;;;;;;;7.45;4.20;;;;;;;-5.01;91.35;96303.09;4812622;29;20092;-90
2021/12/01 06:22:13;;;;;;;4.43;2.35;;;;;;;-5.00;90.97;96323.09;4823613;29;20072;-87
2021/12/01 06:24:41;;;;;;;5.72;2.72;;;;;;;-5.01;90.90;96308.34;4784173;30;20119;-94
2021/12/01 06:27:14;;;;;;;4.57;3.45;;;;;;;-5.03;91.25;96307.75;4775848;30;20170;-87
2021/12/01 06:29:41;;;;;;;3.67;2.42;;;;;;;-4.99;91.12;96329.97;4764371;30;20141;-91
2021/12/01 06:32:15;;;;;;;6.45;3.15;;;;;;;-5.03;91.17;96313.81;4775301;30;20539;-92
2021/12/01 06:34:42;;;;;;;4.30;2.55;;;;;;;-4.99;91.42;96319.44;4761847;30;20050;-93
2021/12/01 06:37:35;;;;;;;3.50;2.33;;;;;;;-5.00;90.99;96307.31;4764667;30;20083;-90
2021/12/01 06:40:04;;;;;;;3.60;2.33;;;;;;;-5.01;90.62;96318.88;4773183;30;20052;-92
2021/12/01 06:42:31;;;;;;;3.22;2.10;;;;;;;-5.01;90.38;96316.25;4762473;30;20090;-90
2021/12/01 06:44:58;;;;;;;5.13;3.08;;;;;;;-5.01;91.00;96326.75;4755970;30;20141;-90
2021/12/01 06:47:25;;;;;;;5.50;2.88;;;;;;;-4.98;90.77;96331.59;4764656;30;20505;-88
2021/12/01 06:49:53;;;;;;;7.82;2.88;;;;;;;-5.03;90.90;96320.91;4759928;30;20142;-91
2021/12/01 06:52:27;;;;;;;7.28;3.17;;;;;;;-5.00;90.64;96336.25;4748541;30;20118;-91
2021/12/01 06:55:00;;;;;;;6.35;3.30;;;;;;;-4.97;91.08;96338.47;4796765;29;20143;-87
2021/12/01 06:57:54;;;;;;;5.22;2.95;;;;;;;-4.95;90.93;96351.41;4841697;29;20224;-91
2021/12/01 07:00:22;;;;;;;4.85;2.90;;;;;;;-4.97;90.89;96354.25;4840389;29;20050;-91
2021/12/01 07:02:49;;;;;;;5.22;2.38;;;;;;;-4.93;90.90;96357.28;4817102;29;20540;-89
2021/12/01 07:05:16;;;;;;;5.05;2.90;;;;;;;-4.95;90.68;96354.03;4843746;29;20061;-86
2021/12/01 07:07:43;;;;;;;6.10;3.28;;;;;;;-4.92;90.92;96364.94;4849423;29;20079;-91
2021/12/01 07:10:12;;;;;;;6.95;3.22;;;;;;;-4.90;90.98;96375.25;4838811;29;20056;-90
2021/12/01 07:12:41;;;;;;;4.38;2.90;;;;;;;-4.89;90.53;96361.06;4823034;29;20138;-90
2021/12/01 07:15:18;;;;;;;7.85;3.53;;;;;;;-4.92;90.75;96372.03;4840658;29;20146;-91
2021/12/01 07:18:10;;;;;;;5.43;3.20;;;;;;;-4.91;91.04;96356.03;4857970;29;20066;-92
2021/12/01 07:20:38;;;;;;;5.13;3.22;;;;;;;-4.89;91.18;96361.88;4851100;29;20058;-89
2021/12/01 07:23:05;;;;;;;7.85;3.58;;;;;;;-4.88;90.75;96373.22;4843467;29;20068;-87
2021/12/01 07:25:40;;;;;;;5.65;2.40;;;;;;;-4.86;90.35;96369.38;4852354;29;20110;-89
2021/12/01 07:28:08;;;;;;;3.55;2.47;;;;;;;-4.90;90.21;96381.31;4838036;29;20078;-89
2021/12/01 07:30:39;;;;;;;7.30;3.70;;;;;;;-4.86;90.42;96373.81;4836590;29;20058;-95
2021/12/01 07:33:20;;;;;;;3.83;2.15;;;;;;;-4.81;90.50;96384.50;4821384;29;20055;-92
2021/12/01 07:35:47;;;;;;;4.88;3.10;;;;;;;-4.76;90.23;96381.25;4852745;29;20049;-91
2021/12/01 07:38:15;;;;;;;16.42;3.28;;;;;;;-4.72;90.22;96388.50;4848024;29;20062;-91
2021/12/01 07:40:44;;;;;;;4.32;2.53;;;;;;;-4.72;90.26;96393.78;4813935;29;20045;-91
2021/12/01 07:43:11;;;;;;;6.25;2.65;;;;;;;-4.68;89.18;96394.19;4802563;29;20046;-91
2021/12/01 07:45:43;;;;;;;7.30;2.47;;;;;;;-4.69;89.46;96382.00;4852528;29;20098;-91
2021/12/01 07:48:11;;;;;;;6.00;3.00;;;;;;;-4.63;88.93;96399.59;4839375;29;20069;-90
2021/12/01 07:50:41;;;;;;;3.17;2.30;;;;;;;-4.62;88.65;96383.59;4818629;29;20114;-88
2021/12/01 07:53:09;;;;;;;3.28;2.30;;;;;;;-4.63;88.78;96396.97;4832223;29;20054;-90
2021/12/01 07:55:39;;;;;;;3.53;2.47;;;;;;;-4.65;89.26;96406.91;4815971;29;20050;-90
2021/12/01 07:58:08;;;;;;;4.78;2.75;;;;;;;-4.62;89.66;96409.91;4833670;29;20062;-91
2021/12/01 08:00:36;;;;;;;4.97;2.72;;;;;;;-4.56;89.29;96418.78;4813903;29;20058;-90
2021/12/01 08:03:03;;;;;;;4.90;2.67;;;;;;;-4.55;88.70;96409.88;4830045;29;20493;-89
2021/12/01 08:05:38;;;;;;;4.80;2.85;;;;;;;-4.58;88.51;96426.09;4827821;29;20085;-88
2021/12/01 08:08:06;;;;;;;4.78;2.78;;;;;;;-4.65;89.62;96422.69;4828271;29;20046;-91
2021/12/01 08:10:33;;;;;;;4.75;2.70;;;;;;;-4.62;89.41;96419.63;4829643;29;20046;-91
2021/12/01 08:13:01;;;;;;;8.02;3.72;;;;;;;-4.62;89.66;96425.69;4831139;29;20571;-89
2021/12/01 08:15:49;;;;;;;7.28;3.53;;;;;;;-4.62;89.93;96417.00;4832440;29;20050;-91
2021/12/01 08:18:22;;;;;;;6.32;3.28;;;;;;;-4.61;90.89;96415.97;4817781;29;20065;-90
2021/12/01 08:20:49;;;;;;;4.47;2.80;;;;;;;-4.59;91.25;96435.00;4829385;29;20072;-90
2021/12/01 08:23:17;;;;;;;4.20;2.38;;;;;;;-4.58;91.29;96434.00;4799064;29;20053;-91
2021/12/01 08:25:49;;;;;;;5.85;3.38;;;;;;;-4.57;90.64;96451.41;4831380;29;20057;-91
2021/12/01 08:28:25;;;;;;;4.40;2.70;;;;;;;-4.58;90.67;96429.53;4828554;29;20066;-90
2021/12/01 08:30:52;;;;;;;7.18;3.13;;;;;;;-4.59;90.30;96432.38;4831455;29;20148;-89
2021/12/01 08:33:19;;;;;;;6.10;3.45;;;;;;;-4.59;90.53;96437.63;4830563;29;20471;-90
2021/12/01 08:35:47;;;;;;;5.95;3.92;;;;;;;-4.60;90.62;96430.75;4832729;29;20424;-89
2021/12/01 08:38:14;;;;;;;4.30;2.55;;;;;;;-4.61;90.83;96422.06;4827776;29;20050;-90
2021/12/01 08:40:42;;;;;;;4.93;3.60;;;;;;;-4.62;90.52;96435.44;4829615;29;20054;-89
2021/12/01 08:43:13;;;;;;;6.03;3.70;;;;;;;-4.62;91.37;96430.97;4814589;29;20064;-90
2021/12/01 08:45:42;;;;;;;6.18;3.65;;;;;;;-4.64;91.39;96447.97;4828783;29;20137;-90
2021/12/01 08:48:13;;;;;;;5.22;3.28;;;;;;;-4.63;91.25;96432.00;4829411;29;20141;-91
2021/12/01 08:50:40;;;;;;;7.10;3.72;;;;;;;-4.66;91.22;96439.50;4829533;29;20062;-92
2021/12/01 08:53:08;;;;;;;5.68;2.65;;;;;;;-4.61;91.51;96447.56;4834085;29;20616;-88
2021/12/01 08:55:40;;;;;;;5.90;3.33;;;;;;;-4.66;91.14;96434.22;4815578;29;20050;-90
2021/12/01 08:58:10;;;;;;;5.97;3.00;;;;;;;-4.57;91.51;96449.56;4846386;29;20053;-90
2021/12/01 09:00:49;;;;;;;5.13;3.42;;;;;;;-4.54;91.27;96447.53;4847425;29;20085;-87
2021/12/01 09:03:19;;;;;;;7.30;3.28;;;;;;;-4.51;90.52;96455.00;4819249;29;20065;-90
2021/12/01 09:05:47;;;;;;;3.90;2.80;;;;;;;-4.55;89.76;96454.63;4818561;29;20058;-90
2021/12/01 09:08:23;;;;;;;7.60;3.63;;;;;;;-4.52;89.58;96448.94;4784137;29;20080;-88
2021/12/01 09:10:54;;;;;;;4.65;2.88;;;;;;;-4.49;89.05;96466.94;4782180;29;20274;-90
2021/12/01 09:13:23;;;;;;;3.75;2.58;;;;;;;-4.46;87.05;96447.28;4798851;29;20069;-90
2021/12/01 09:15:53;;;;;;;3.63;2.60;;;;;;;-4.47;86.69;96459.63;4816301;29;20145;-89
2021/12/01 09:18:34;;;;;;;4.50;3.28;;;;;;;-4.45;86.83;96468.13;4797214;29;20067;-90
2021/12/01 09:21:02;;;;;;;3.42;2.35;;;;;;;-4.49;85.71;96453.78;4802351;29;20517;-90
2021/12/01 09:23:30;;;;;;;2.97;2.35;;;;;;;-4.47;85.37;96457.00;4798387;29;20066;-90
2021/12/01 09:25:57;;;;;;;5.55;2.83;;;;;;;-4.48;85.64;96462.47;4795725;29;20047;-91
2021/12/01 09:28:25;;;;;;;6.43;3.08;;;;;;;-4.51;85.85;96473.44;4781324;29;20062;-90
2021/12/01 09:30:55;;;;;;;4.38;2.53;;;;;;;-4.50;85.87;96475.06;4811759;29;20145;-91
2021/12/01 09:33:37;;;;;;;3.70;2.50;;;;;;;-4.53;86.57;96455.22;4780905;29;20050;-90
2021/12/01 09:36:04;;;;;;;7.47;2.60;;;;;;;-4.54;87.04;96472.03;4808981;29;20051;-89
2021/12/01 09:38:34;;;;;;;5.82;3.20;;;;;;;-4.59;88.00;96470.03;4795654;29;20055;-90
2021/12/01 09:41:02;;;;;;;5.40;3.15;;;;;;;-4.59;88.09;96472.66;4799376;29;20060;-90
2021/12/01 09:43:34;;;;;;;5.03;2.97;;;;;;;-4.63;88.27;96465.41;4817039;29;20053;-89
2021/12/01 09:46:05;;;;;;;5.82;3.13;;;;;;;-4.63;88.45;96474.09;4855902;29;20157;-90
2021/12/01 09:48:33;;;;;;;4.03;2.40;;;;;;;-4.61;88.03;96472.06;4832880;29;20581;-89
2021/12/01 09:51:12;;;;;;;21.95;3.63;;;;;;;-4.50;88.24;96488.22;4830442;29;20050;-89
2021/12/01 09:53:40;;;;;;;5.50;2.80;;;;;;;-4.52;87.40;96488.41;4832611;29;20058;-88
2021/12/01 09:56:08;;;;;;;5.20;2.55;;;;;;;-4.56;86.66;96476.69;4835774;29;20087;-90
2021/12/01 09:58:37;;;;;;;5.18;2.30;;;;;;;-4.60;85.94;96493.94;4847825;29;20397;-85
2021/12/01 10:01:16;;;;;;;3.17;2.13;;;;;;;-4.65;86.09;96499.03;4846579;29;20090;-89
2021/12/01 10:03:47;;;;;;;2.78;2.08;;;;;;;-4.69;86.04;96485.47;4836356;29;20149;-90
2021/12/01 10:06:18;;;;;;;2.92;1.95;;;;;;;-4.70;84.98;96498.84;4841820;29;20083;-92
2021/12/01 10:08:51;;;;;;;5.85;3.15;;;;;;;-4.71;85.58;96491.94;4755253;30;20157;-91
2021/12/01 10:11:24;;;;;;;4.90;2.45;;;;;;;-4.69;85.38;96497.81;4765759;30;20051;-87
2021/12/01 10:13:57;;;;;;;4.40;2.30;;;;;;;-4.67;85.20;96488.69;4461513;29;10000587;-87
2021/12/01 10:16:26;;;;;;;4.38;2.47;;;;;;;-4.64;84.49;96492.72;4764456;30;20129;-90
2021/12/01 10:19:05;;;;;;;4.35;2.63;;;;;;;-4.59;84.78;96488.44;4766759;30;20565;-91
2021/12/01 10:21:39;;;;;;;4.05;2.47;;;;;;;-4.53;85.39;96497.34;4744704;30;20224;-88
2021/12/01 10:24:23;;;;;;;2.50;2.00;;;;;;;-4.52;85.51;96488.41;4772956;29;20089;-87
2021/12/01 10:27:00;;;;;;;5.20;3.25;;;;;;;-4.50;85.01;96511.91;4774587;30;20051;-92
2021/12/01 10:29:52;;;;;;;3.63;2.22;;;;;;;-4.55;84.68;96488.84;4705393;30;20061;-93
2021/12/01 10:32:24;;;;;;;4.20;2.83;;;;;;;-4.51;84.58;96505.03;4720991;30;20047;-89
2021/12/01 10:35:25;;;;;;;4.03;2.42;;;;;;;-4.56;83.45;96503.00;4688330;30;20108;-92
2021/12/01 10:41:38;;;;;;;3.90;2.42;;;;;;;-4.68;83.15;96505.50;4683814;30;20074;-93
2021/12/01 10:44:25;;;;;;;6.57;2.72;;;;;;;-4.71;83.38;96505.94;4680559;30;20067;-92
2021/12/01 10:46:57;;;;;;;3.33;2.45;;;;;;;-4.70;83.42;96512.00;4670208;30;20042;-91
2021/12/01 10:49:42;;;;;;;5.20;2.00;;;;;;;-4.73;82.50;96512.44;4667695;30;20050;-91
2021/12/01 10:52:31;;;;;;;7.88;2.67;;;;;;;-4.71;81.65;96520.91;4670075;30;20077;-90
2021/12/01 10:55:07;;;;;;;8.30;2.53;;;;;;;-4.84;82.61;96512.03;4660182;30;20406;-92
2021/12/01 10:57:55;;;;;;;6.22;3.15;;;;;;;-4.78;81.34;96515.69;4674131;30;20119;-90
2021/12/01 11:00:46;;;;;;;4.22;2.15;;;;;;;-4.76;81.57;96513.66;4688365;30;20244;-90
2021/12/01 11:03:25;;;;;;;3.97;2.30;;;;;;;-4.78;82.14;96520.94;4674012;30;20065;-89
2021/12/01 11:06:33;;;;;;;3.60;2.28;;;;;;;-4.74;81.51;96524.75;4668270;30;20551;-89
2021/12/01 11:09:00;;;;;;;4.38;2.03;;;;;;;-4.76;82.37;96518.09;4673058;30;20058;-89
2021/12/01 11:11:43;;;;;;;3.90;2.42;;;;;;;-4.75;82.38;96527.63;4668367;30;20150;-89
2021/12/01 11:14:29;;;;;;;3.75;2.42;;;;;;;-4.73;81.01;96538.75;4672681;30;20082;-88
2021/12/01 11:16:57;;;;;;;4.35;2.30;;;;;;;-4.81;81.16;96524.78;4706911;30;20054;-91
2021/12/01 11:19:33;;;;;;;4.32;2.90;;;;;;;-4.85;82.12;96526.22;4727385;30;20056;-91
2021/12/01 11:22:30;;;;;;;4.57;2.03;;;;;;;-4.82;81.42;96520.53;4731681;30;20060;-87
2021/12/01 11:25:18;;;;;;;4.97;2.33;;;;;;;-4.81;81.16;96529.22;4739015;30;20067;-93
2021/12/01 11:27:46;;;;;;;3.13;1.88;;;;;;;-4.82;80.38;96531.06;4734441;30;20068;-90
2021/12/01 11:30:13;;;;;;;3.55;1.88;;;;;;;-4.80;80.57;96534.28;4740801;30;20060;-88
2021/12/01 11:32:41;;;;;;;2.72;1.98;;;;;;;-4.80;80.19;96526.41;4759660;30;20544;-89
2021/12/01 11:35:23;;;;;;;4.30;2.17;;;;;;;-4.82;78.75;96535.50;4758811;30;20048;-88
2021/12/01 11:37:55;;;;;;;3.83;2.17;;;;;;;-4.77;78.72;96550.69;4764781;30;20060;-91
2021/12/01 11:40:37;;;;;;;4.00;2.33;;;;;;;-4.85;79.12;96541.19;4766102;30;20137;-87
2021/12/01 11:43:05;;;;;;;7.97;2.80;;;;;;;-4.85;78.93;96552.53;4784919;30;20066;-88
2021/12/01 11:45:35;;;;;;;4.60;2.00;;;;;;;-4.84;79.29;96556.75;4811813;29;20058;-92
2021/12/01 11:48:04;;;;;;;4.78;2.20;;;;;;;-4.84;78.73;96555.97;4839911;29;20030;-91
2021/12/01 11:50:36;;;;;;;2.75;2.00;;;;;;;-4.86;78.02;96566.72;4808688;29;20089;-91
2021/12/01 11:53:16;;;;;;;5.25;1.98;;;;;;;-4.85;77.82;96562.25;4788244;29;20054;-90
2021/12/01 11:55:57;;;;;;;3.70;2.00;;;;;;;-4.89;78.34;96561.03;4831615;29;20059;-89
2021/12/01 11:58:44;;;;;;;4.82;1.88;;;;;;;-4.89;78.39;96563.66;4843652;29;20063;-92
2021/12/01 12:01:20;;;;;;;3.63;1.80;;;;;;;-4.87;77.90;96574.78;4803229;29;20059;-90
2021/12/01 12:03:53;;;;;;;3.22;1.60;;;;;;;-4.89;77.72;96580.25;4805750;29;20061;-88
2021/12/01 12:06:27;;;;;;;5.85;2.95;;;;;;;-4.89;77.61;96579.44;4803165;29;20520;-92